createdAt,value
2023-03-29T00:01:36.477Z,5.49
2023-03-29T00:04:27.390Z,5.48
2023-03-29T00:07:13.483Z,5.58
2023-03-29T00:10:01.867Z,5.58
2023-03-29T00:13:13.863Z,5.55
2023-03-29T00:15:59.658Z,5.54
2023-03-29T00:18:50.230Z,5.54
2023-03-29T00:21:54.871Z,5.55
2023-03-29T00:25:16.420Z,5.54
2023-03-29T00:34:12.365Z,5.66
2023-03-29T00:40:53.838Z,5.69
2023-03-29T00:46:56.148Z,5.76
2023-03-29T00:49:42.130Z,5.70
2023-03-29T00:52:54.238Z,5.77
2023-03-29T01:03:02.814Z,5.66
2023-03-29T01:13:26.767Z,5.75
2023-03-29T01:59:32.883Z,5.79
2023-03-29T02:02:03.502Z,5.83
2023-03-29T02:04:37.427Z,5.82
2023-03-29T02:07:09.030Z,5.87
2023-03-29T02:09:39.128Z,5.82
2023-03-29T02:12:32.775Z,5.80
2023-03-29T02:15:05.394Z,5.96
2023-03-29T02:17:32.910Z,5.95
2023-03-29T02:23:16.233Z,5.93
2023-03-29T02:25:45.888Z,5.96
2023-03-29T02:28:13.335Z,5.97
2023-03-29T02:31:05.690Z,6.02
2023-03-29T02:33:43.676Z,6.07
2023-03-29T02:36:17.839Z,6.07
2023-03-29T02:38:45.554Z,6.06
2023-03-29T02:41:26.039Z,6.11
2023-03-29T02:43:54.096Z,6.14
2023-03-29T02:46:24.200Z,6.18
2023-03-29T02:48:55.572Z,6.09
2023-03-29T02:51:27.928Z,6.20
2023-03-29T02:54:08.342Z,6.14
2023-03-29T02:56:48.539Z,6.14
2023-03-29T02:59:21.696Z,6.23
2023-03-29T03:01:49.762Z,6.37
2023-03-29T03:04:23.001Z,6.30
2023-03-29T03:06:50.273Z,6.33
2023-03-29T03:09:17.594Z,6.28
2023-03-29T03:11:44.682Z,6.31
2023-03-29T03:14:12.628Z,6.34
2023-03-29T03:16:45.472Z,6.37
2023-03-29T03:19:13.088Z,6.47
2023-03-29T03:21:40.319Z,6.44
2023-03-29T03:24:07.848Z,6.38
2023-03-29T03:26:36.062Z,6.34
2023-03-29T03:29:06.665Z,6.41
2023-03-29T03:31:33.898Z,6.34
2023-03-29T03:34:13.272Z,6.40
2023-03-29T03:36:43.200Z,6.41
2023-03-29T03:39:12.676Z,6.38
2023-03-29T03:41:42.607Z,6.34
2023-03-29T03:44:14.127Z,6.34
2023-03-29T03:46:52.593Z,6.51
2023-03-29T03:49:22.592Z,6.47
2023-03-29T03:51:58.551Z,6.51
2023-03-29T03:54:25.756Z,6.49
2023-03-29T03:56:54.257Z,6.58
2023-03-29T03:59:22.627Z,6.54
2023-03-29T04:01:49.877Z,6.61
2023-03-29T04:04:17.675Z,6.65
2023-03-29T04:06:44.491Z,6.79
2023-03-29T04:09:12.133Z,6.65
2023-03-29T04:11:39.298Z,6.67
2023-03-29T04:14:06.398Z,6.69
2023-03-29T04:16:33.388Z,6.72
2023-03-29T04:19:03.341Z,6.74
2023-03-29T04:21:30.117Z,6.74
2023-03-29T04:23:57.123Z,6.72
2023-03-29T04:26:24.394Z,6.75
2023-03-29T04:28:51.207Z,6.78
2023-03-29T04:31:17.967Z,6.63
2023-03-29T04:33:47.257Z,6.63
2023-03-29T04:36:16.205Z,6.56
2023-03-29T04:38:47.424Z,6.47
2023-03-29T04:41:15.614Z,6.42
2023-03-29T04:43:47.982Z,6.38
2023-03-29T04:46:22.094Z,6.37
2023-03-29T04:48:49.309Z,6.38
2023-03-29T04:51:16.543Z,6.34
2023-03-29T04:53:43.643Z,6.41
2023-03-29T04:56:10.755Z,6.42
2023-03-29T04:58:38.018Z,6.42
2023-03-29T05:01:06.004Z,6.55
2023-03-29T05:03:32.963Z,6.52
2023-03-29T05:06:07.349Z,6.61
2023-03-29T05:08:39.169Z,6.55
2023-03-29T05:11:08.936Z,6.65
2023-03-29T05:13:36.216Z,6.71
2023-03-29T05:16:04.709Z,6.75
2023-03-29T05:18:32.019Z,6.85
2023-03-29T05:21:00.233Z,6.81
2023-03-29T05:23:28.055Z,6.88
2023-03-29T05:25:54.939Z,6.92
2023-03-29T05:28:22.532Z,6.91
2023-03-29T05:31:00.988Z,6.91
2023-03-29T05:33:29.063Z,6.89
2023-03-29T05:36:05.391Z,6.92
2023-03-29T05:38:35.958Z,6.99
2023-03-29T05:41:03.163Z,6.96
2023-03-29T05:43:30.253Z,6.95
2023-03-29T05:45:57.858Z,6.96
2023-03-29T05:48:25.754Z,7.06
2023-03-29T05:50:54.610Z,7.10
2023-03-29T05:53:23.271Z,7.12
2023-03-29T05:55:51.438Z,7.12
2023-03-29T05:58:26.640Z,7.10
2023-03-29T06:00:53.754Z,7.26
2023-03-29T06:03:29.893Z,7.28
2023-03-29T06:06:02.581Z,7.27
2023-03-29T06:08:31.041Z,7.28
2023-03-29T06:11:05.075Z,7.31
2023-03-29T06:13:34.154Z,7.34
2023-03-29T06:16:01.663Z,7.43
2023-03-29T06:18:28.778Z,7.53
2023-03-29T06:20:56.354Z,7.50
2023-03-29T06:23:31.573Z,7.50
2023-03-29T06:26:00.429Z,7.57
2023-03-29T06:28:27.608Z,7.50
2023-03-29T06:33:03.908Z,7.60
2023-03-29T06:35:30.970Z,7.60
2023-03-29T06:38:00.638Z,7.65
2023-03-29T06:40:38.688Z,7.64
2023-03-29T06:43:09.014Z,7.68
2023-03-29T06:45:44.133Z,7.64
2023-03-29T06:48:14.431Z,7.70
2023-03-29T06:50:50.047Z,7.82
2023-03-29T06:53:38.762Z,7.78
2023-03-29T06:56:09.778Z,7.79
2023-03-29T06:58:44.969Z,7.86
2023-03-29T07:01:26.862Z,7.89
2023-03-29T07:04:21.420Z,7.92
2023-03-29T07:06:48.718Z,7.86
2023-03-29T07:09:51.475Z,7.89
2023-03-29T07:12:23.659Z,8.01
2023-03-29T07:14:50.742Z,7.99
2023-03-29T07:17:20.366Z,8.09
2023-03-29T07:19:48.892Z,7.99
2023-03-29T07:22:28.521Z,8.12
2023-03-29T07:24:55.407Z,8.16
2023-03-29T07:27:26.450Z,8.18
2023-03-29T07:29:53.065Z,8.29
2023-03-29T07:32:22.541Z,8.25
2023-03-29T07:35:05.980Z,8.32
2023-03-29T07:37:39.878Z,8.33
2023-03-29T07:40:16.369Z,8.37
2023-03-29T07:42:47.935Z,8.32
2023-03-29T07:45:16.994Z,8.22
2023-03-29T07:47:43.927Z,8.10
2023-03-29T07:50:10.737Z,8.09
2023-03-29T07:52:38.267Z,8.16
2023-03-29T07:55:07.162Z,8.22
2023-03-29T07:57:33.825Z,8.33
2023-03-29T08:00:00.313Z,8.52
2023-03-29T08:02:27.283Z,8.52
2023-03-29T08:04:54.454Z,8.67
2023-03-29T08:07:21.265Z,8.68
2023-03-29T08:09:48.548Z,8.92
2023-03-29T08:12:15.089Z,8.91
2023-03-29T08:14:41.729Z,8.98
2023-03-29T08:17:08.257Z,9.23
2023-03-29T08:19:34.756Z,9.38
2023-03-29T08:22:01.186Z,9.39
2023-03-29T08:24:28.722Z,9.23
2023-03-29T08:26:55.364Z,9.44
2023-03-29T08:29:22.328Z,9.80
2023-03-29T08:31:49.192Z,9.71
2023-03-29T08:34:16.133Z,10.04
2023-03-29T08:36:42.575Z,10.07
2023-03-29T08:39:09.932Z,10.35
2023-03-29T08:41:36.578Z,10.20
2023-03-29T08:44:23.351Z,9.90
2023-03-29T08:47:07.173Z,10.12
2023-03-29T08:49:37.942Z,9.98
2023-03-29T08:52:11.348Z,10.15
2023-03-29T08:54:47.281Z,9.94
2023-03-29T08:57:28.857Z,9.98
2023-03-29T08:59:58.388Z,10.02
2023-03-29T09:02:27.763Z,9.94
2023-03-29T09:05:00.751Z,10.08
2023-03-29T09:07:27.950Z,10.04
2023-03-29T09:09:54.557Z,10.22
2023-03-29T09:12:56.526Z,10.21
2023-03-29T09:15:30.939Z,10.24
2023-03-29T09:18:15.588Z,10.15
2023-03-29T09:20:58.263Z,10.26
2023-03-29T09:23:42.900Z,10.29
2023-03-29T09:26:31.290Z,10.32
2023-03-29T09:29:25.330Z,10.42
2023-03-29T09:31:54.594Z,10.72
2023-03-29T09:34:24.173Z,10.73
2023-03-29T09:36:56.656Z,10.87
2023-03-29T09:39:23.625Z,10.76
2023-03-29T09:42:04.225Z,10.62
2023-03-29T09:44:39.123Z,10.75
2023-03-29T09:47:18.960Z,10.91
2023-03-29T09:49:50.648Z,10.83
2023-03-29T09:52:19.957Z,10.89
2023-03-29T09:54:46.602Z,10.75
2023-03-29T09:57:18.536Z,11.06
2023-03-29T09:59:51.736Z,11.11
2023-03-29T10:02:20.374Z,11.00
2023-03-29T10:04:55.372Z,10.97
2023-03-29T10:07:22.688Z,11.07
2023-03-29T10:09:51.772Z,10.96
2023-03-29T10:12:19.980Z,11.01
2023-03-29T10:14:51.445Z,11.13
2023-03-29T10:17:21.757Z,11.16
2023-03-29T10:19:56.996Z,11.17
2023-03-29T10:22:31.920Z,11.26
2023-03-29T10:24:58.680Z,11.18
2023-03-29T10:27:28.175Z,11.23
2023-03-29T10:29:56.512Z,11.34
2023-03-29T10:32:23.158Z,11.51
2023-03-29T10:34:51.110Z,11.32
2023-03-29T10:37:19.843Z,11.44
2023-03-29T10:39:48.268Z,11.58
2023-03-29T10:42:17.291Z,11.59
2023-03-29T10:44:58.475Z,11.74
2023-03-29T10:47:31.143Z,12.02
2023-03-29T10:50:01.532Z,12.20
2023-03-29T10:52:30.027Z,12.31
2023-03-29T10:54:56.935Z,12.34
2023-03-29T10:57:34.045Z,12.72
2023-03-29T11:00:00.786Z,13.23
2023-03-29T11:02:39.103Z,12.99
2023-03-29T11:05:52.714Z,13.37
2023-03-29T11:08:31.875Z,13.36
2023-03-29T11:11:17.384Z,13.18
2023-03-29T11:13:58.743Z,13.42
2023-03-29T11:16:38.701Z,13.42
2023-03-29T11:19:40.602Z,13.19
2023-03-29T11:22:19.665Z,13.37
2023-03-29T11:24:57.722Z,13.07
2023-03-29T11:27:41.687Z,13.23
2023-03-29T11:30:10.959Z,13.25
2023-03-29T11:33:06.872Z,13.22
2023-03-29T11:35:49.663Z,13.40
2023-03-29T11:38:25.269Z,13.47
2023-03-29T11:41:13.495Z,13.87
2023-03-29T11:43:47.706Z,13.91
2023-03-29T11:46:20.247Z,13.94
2023-03-29T11:49:01.271Z,13.75
2023-03-29T11:51:34.581Z,14.00
2023-03-29T11:54:05.880Z,14.00
2023-03-29T11:56:40.642Z,14.11
2023-03-29T11:59:17.049Z,14.11
2023-03-29T12:01:52.002Z,13.98
2023-03-29T12:04:35.098Z,14.16
2023-03-29T12:07:07.061Z,14.80
2023-03-29T12:09:50.047Z,14.91
2023-03-29T12:12:27.023Z,14.84
2023-03-29T12:15:15.729Z,14.88
2023-03-29T12:17:50.555Z,14.88
2023-03-29T12:20:46.490Z,15.24
2023-03-29T12:23:15.832Z,14.94
2023-03-29T12:25:48.575Z,14.59
2023-03-29T12:28:51.698Z,14.62
2023-03-29T12:31:33.949Z,14.53
2023-03-29T12:34:26.574Z,14.81
2023-03-29T12:37:01.940Z,15.15
2023-03-29T12:39:31.087Z,15.28
2023-03-29T12:42:12.595Z,15.80
2023-03-29T12:44:41.360Z,16.30
2023-03-29T12:47:18.661Z,16.18
2023-03-29T12:49:47.888Z,16.85
2023-03-29T12:52:41.911Z,16.34
2023-03-29T12:55:33.302Z,16.32
2023-03-29T12:58:06.795Z,16.44
2023-03-29T13:00:42.860Z,16.42
2023-03-29T13:03:49.026Z,15.86
2023-03-29T13:06:31.596Z,15.96
2023-03-29T13:09:30.554Z,16.42
2023-03-29T13:11:58.420Z,17.00
2023-03-29T13:14:30.088Z,17.10
2023-03-29T13:17:18.164Z,16.79
2023-03-29T13:19:56.091Z,18.10
2023-03-29T13:22:52.591Z,17.17
2023-03-29T13:25:25.044Z,17.40
2023-03-29T13:28:05.667Z,17.57
2023-03-29T13:30:55.659Z,16.67
2023-03-29T13:33:44.450Z,16.42
2023-03-29T13:36:23.307Z,16.21
2023-03-29T13:38:53.324Z,16.48
2023-03-29T13:41:43.632Z,16.55
2023-03-29T13:44:22.163Z,17.17
2023-03-29T13:47:00.913Z,16.55
2023-03-29T13:49:31.979Z,16.75
2023-03-29T13:52:18.475Z,16.64
2023-03-29T13:55:04.176Z,16.17
2023-03-29T13:57:50.962Z,16.42
2023-03-29T14:00:26.670Z,16.54
2023-03-29T14:03:01.444Z,16.41
2023-03-29T14:05:37.832Z,16.51
2023-03-29T14:08:18.815Z,16.41
2023-03-29T14:10:45.856Z,16.52
2023-03-29T14:13:14.749Z,16.18
2023-03-29T14:15:57.169Z,16.17
2023-03-29T14:18:25.907Z,16.22
2023-03-29T14:20:55.526Z,16.07
2023-03-29T14:23:30.049Z,16.07
2023-03-29T14:26:07.720Z,16.09
2023-03-29T14:28:34.229Z,16.13
2023-03-29T14:31:03.896Z,16.07
2023-03-29T14:33:37.943Z,16.09
2023-03-29T14:36:05.213Z,16.22
2023-03-29T14:38:36.581Z,16.24
2023-03-29T14:41:03.746Z,16.30
2023-03-29T14:43:34.567Z,16.42
2023-03-29T14:46:09.642Z,16.62
2023-03-29T14:48:37.114Z,16.61
2023-03-29T14:51:04.575Z,16.49
2023-03-29T14:53:32.454Z,16.47
2023-03-29T14:56:10.682Z,16.47
2023-03-29T14:58:37.243Z,16.52
2023-03-29T15:01:24.621Z,16.47
2023-03-29T15:04:06.150Z,16.48
2023-03-29T15:06:41.585Z,16.38
2023-03-29T15:09:18.536Z,16.32
2023-03-29T15:11:52.565Z,16.49
2023-03-29T15:14:21.475Z,16.62
2023-03-29T15:16:49.941Z,16.45
2023-03-29T15:19:30.809Z,16.41
2023-03-29T15:21:58.058Z,16.32
2023-03-29T15:24:33.890Z,16.34
2023-03-29T15:27:11.240Z,16.44
2023-03-29T15:29:42.047Z,16.34
2023-03-29T15:32:22.538Z,16.25
2023-03-29T15:34:59.784Z,16.21
2023-03-29T15:37:26.573Z,16.20
2023-03-29T15:39:53.152Z,16.21
2023-03-29T15:42:20.927Z,16.13
2023-03-29T15:44:47.741Z,16.22
2023-03-29T15:47:14.240Z,16.22
2023-03-29T15:49:40.682Z,16.18
2023-03-29T15:52:07.099Z,16.32
2023-03-29T15:54:35.957Z,16.24
2023-03-29T15:57:13.341Z,16.27
2023-03-29T15:59:40.131Z,16.20
2023-03-29T16:02:07.781Z,16.16
2023-03-29T16:04:34.239Z,16.16
2023-03-29T16:07:01.217Z,16.16
2023-03-29T16:09:27.747Z,16.14
2023-03-29T16:11:54.251Z,16.13
2023-03-29T16:14:27.099Z,16.20
2023-03-29T16:16:55.682Z,16.21
2023-03-29T16:19:23.195Z,16.24
2023-03-29T16:21:50.074Z,16.24
2023-03-29T16:24:22.416Z,16.31
2023-03-29T16:26:49.005Z,16.31
2023-03-29T16:29:17.373Z,16.34
2023-03-29T16:31:44.937Z,16.34
2023-03-29T16:34:13.222Z,16.31
2023-03-29T16:36:41.059Z,16.28
2023-03-29T16:39:07.472Z,16.34
2023-03-29T16:41:33.937Z,16.28
2023-03-29T16:44:02.595Z,16.34
2023-03-29T16:46:29.858Z,16.24
2023-03-29T16:48:57.935Z,16.20
2023-03-29T16:51:25.572Z,16.18
2023-03-29T16:53:52.049Z,16.17
2023-03-29T16:56:19.262Z,16.21
2023-03-29T16:58:46.499Z,16.16
2023-03-29T17:01:18.647Z,16.13
2023-03-29T17:03:45.354Z,16.10
2023-03-29T17:06:12.247Z,16.11
2023-03-29T17:08:39.362Z,16.03
2023-03-29T17:11:22.999Z,16.07
2023-03-29T17:13:55.334Z,16.06
2023-03-29T17:16:24.429Z,16.03
2023-03-29T17:18:51.716Z,15.97
2023-03-29T17:21:18.321Z,15.99
2023-03-29T17:23:44.742Z,15.97
2023-03-29T17:26:14.660Z,15.99
2023-03-29T17:28:44.082Z,15.89
2023-03-29T17:31:10.564Z,15.94
2023-03-29T17:33:37.409Z,15.96
2023-03-29T17:36:05.734Z,15.94
2023-03-29T17:38:33.797Z,15.90
2023-03-29T17:41:03.995Z,15.89
2023-03-29T17:43:30.844Z,15.86
2023-03-29T17:46:00.499Z,15.85
2023-03-29T17:48:28.286Z,15.83
2023-03-29T17:50:56.468Z,15.79
2023-03-29T17:53:23.104Z,15.79
2023-03-29T18:03:36.561Z,15.67
2023-03-29T18:06:04.017Z,15.69
2023-03-29T18:08:31.884Z,15.67
2023-03-29T18:11:10.940Z,15.69
2023-03-29T18:13:40.311Z,15.66
2023-03-29T18:16:08.748Z,15.62
2023-03-29T18:18:35.457Z,15.59
2023-03-29T18:21:02.320Z,15.46
2023-03-29T18:23:28.826Z,15.41
2023-03-29T18:26:00.173Z,15.38
2023-03-29T18:28:27.052Z,15.36
2023-03-29T18:30:53.776Z,15.32
2023-03-29T18:33:20.336Z,15.28
2023-03-29T18:35:52.519Z,15.28
2023-03-29T18:38:22.432Z,15.24
2023-03-29T18:40:52.181Z,15.22
2023-03-29T18:43:18.934Z,15.14
2023-03-29T18:45:45.544Z,15.17
2023-03-29T18:48:12.105Z,15.10
2023-03-29T18:50:38.888Z,15.08
2023-03-29T18:53:05.525Z,15.05
2023-03-29T18:55:32.141Z,15.00
2023-03-29T18:57:58.650Z,14.91
2023-03-29T19:00:25.193Z,14.93
2023-03-29T19:02:51.798Z,14.88
2023-03-29T19:05:18.707Z,14.88
2023-03-29T19:07:45.413Z,14.88
2023-03-29T19:10:12.173Z,14.91
2023-03-29T19:12:38.791Z,14.87
2023-03-29T19:15:06.017Z,14.85
2023-03-29T19:17:32.636Z,14.83
2023-03-29T19:19:59.278Z,14.85
2023-03-29T19:22:26.562Z,14.77
2023-03-29T19:24:53.351Z,14.79
2023-03-29T19:27:19.955Z,14.81
2023-03-29T19:29:48.082Z,14.66
2023-03-29T19:32:14.624Z,14.66
2023-03-29T19:34:41.461Z,14.63
2023-03-29T19:37:07.958Z,14.57
2023-03-29T19:39:35.027Z,14.57
2023-03-29T19:42:01.598Z,14.60
2023-03-29T19:44:28.164Z,14.63
2023-03-29T19:46:54.792Z,14.57
2023-03-29T19:49:21.384Z,14.51
2023-03-29T19:51:48.052Z,14.44
2023-03-29T19:54:14.663Z,14.39
2023-03-29T19:56:42.917Z,14.36
2023-03-29T19:59:11.217Z,14.28
2023-03-29T20:01:39.516Z,14.35
2023-03-29T20:04:06.401Z,14.29
2023-03-29T20:06:33.024Z,14.29
2023-03-29T20:08:59.616Z,14.23
2023-03-29T20:11:26.559Z,14.19
2023-03-29T20:13:53.062Z,14.23
2023-03-29T20:16:20.054Z,14.15
2023-03-29T20:18:46.751Z,14.08
2023-03-29T20:21:16.355Z,14.09
2023-03-29T20:23:43.347Z,14.05
2023-03-29T20:26:10.516Z,14.06
2023-03-29T20:28:39.950Z,14.00
2023-03-29T20:31:10.523Z,14.01
2023-03-29T20:33:37.476Z,13.97
2023-03-29T20:36:04.659Z,13.91
2023-03-29T20:38:31.355Z,13.91
2023-03-29T20:40:58.019Z,13.95
2023-03-29T20:43:24.740Z,13.98
2023-03-29T20:45:53.913Z,13.98
2023-03-29T20:48:30.412Z,13.90
2023-03-29T20:50:57.780Z,13.97
2023-03-29T20:53:25.044Z,13.94
2023-03-29T20:55:51.802Z,13.93
2023-03-29T20:58:18.362Z,13.85
2023-03-29T21:00:46.698Z,13.81
2023-03-29T21:03:13.335Z,13.90
2023-03-29T21:05:39.958Z,13.87
2023-03-29T21:08:06.445Z,13.84
2023-03-29T21:10:33.240Z,13.81
2023-03-29T21:13:00.144Z,13.81
2023-03-29T21:15:29.016Z,13.77
2023-03-29T21:17:55.950Z,13.77
2023-03-29T21:20:22.516Z,13.73
2023-03-29T21:22:49.001Z,13.67
2023-03-29T21:25:15.886Z,13.64
2023-03-29T21:27:43.062Z,13.60
2023-03-29T21:30:10.987Z,13.64
2023-03-29T21:32:38.075Z,13.60
2023-03-29T21:35:05.078Z,13.63
2023-03-29T21:37:31.508Z,13.57
2023-03-29T21:39:58.171Z,13.48
2023-03-29T21:42:24.730Z,13.50
2023-03-29T21:44:51.352Z,13.46
2023-03-29T21:47:17.863Z,13.43
2023-03-29T21:49:44.396Z,13.46
2023-03-29T21:52:10.916Z,13.40
2023-03-29T21:54:37.606Z,13.36
2023-03-29T21:57:04.260Z,13.42
2023-03-29T21:59:30.872Z,13.46
2023-03-29T22:01:57.471Z,13.46
2023-03-29T22:04:35.739Z,13.44
2023-03-29T22:07:03.044Z,13.48
2023-03-29T22:09:29.793Z,13.44
2023-03-29T22:11:56.892Z,13.39
2023-03-29T22:14:23.491Z,13.42
2023-03-29T22:16:50.162Z,13.42
2023-03-29T22:19:16.717Z,13.42
2023-03-29T22:21:44.111Z,13.39
2023-03-29T22:24:10.678Z,13.40
2023-03-29T22:26:37.818Z,13.37
2023-03-29T22:29:04.547Z,13.40
2023-03-29T22:31:32.581Z,13.46
2023-03-29T22:33:59.804Z,13.46
2023-03-29T22:36:28.983Z,13.46
2023-03-29T22:38:55.929Z,13.37
2023-03-29T22:41:24.156Z,13.40
2023-03-29T22:43:52.640Z,13.37
2023-03-29T22:46:19.909Z,13.36
2023-03-29T22:48:46.861Z,13.44
2023-03-29T22:51:13.995Z,13.32
2023-03-29T22:53:40.835Z,13.30
2023-03-29T22:56:09.158Z,13.23
2023-03-29T22:58:37.586Z,13.25
2023-03-29T23:01:05.681Z,13.25
2023-03-29T23:03:32.894Z,13.19
2023-03-29T23:06:03.748Z,13.22
2023-03-29T23:08:32.266Z,13.15
2023-03-29T23:10:59.140Z,13.13
2023-03-29T23:13:28.758Z,13.19
2023-03-29T23:15:58.801Z,13.06
2023-03-29T23:18:26.832Z,13.15
2023-03-29T23:20:54.779Z,13.07
2023-03-29T23:23:22.706Z,13.06
2023-03-29T23:25:50.952Z,13.06
2023-03-29T23:28:21.829Z,12.99
2023-03-29T23:31:18.418Z,13.02
2023-03-29T23:33:45.483Z,13.05
2023-03-29T23:36:14.619Z,13.03
2023-03-29T23:38:43.495Z,13.02
2023-03-29T23:41:12.825Z,12.95
2023-03-29T23:43:41.584Z,12.95
2023-03-29T23:46:10.688Z,12.99
2023-03-29T23:48:38.676Z,13.05
2023-03-29T23:51:07.755Z,13.11
2023-03-29T23:53:34.454Z,13.16
2023-03-29T23:56:03.585Z,13.09
